Time;durP1;ratioP1;P1;durP2;ratioP2;P2;SDS_P1;SDS_P2;PMS_P1;PMS_P2;Temp;Humidity;BMP_temperature;BMP_pressure;BME280_temperature;BME280_humidity;BME280_pressure;Samples;Min_cycle;Max_cycle;Signal;HPM_P1;HPM_P2
2021/04/24 00:00:36;;;;;;;12.45;5.80;;;;;;;4.04;100.00;97046.38;4995747;28;20516;-65
2021/04/24 00:03:05;;;;;;;12.57;6.05;;;;;;;3.97;100.00;97049.44;5007536;28;20066;-62
2021/04/24 00:05:36;;;;;;;12.35;6.78;;;;;;;3.99;100.00;97048.41;5011534;28;20058;-66
2021/04/24 00:08:06;;;;;;;10.80;6.05;;;;;;;4.02;100.00;97045.59;4996591;28;20070;-63
2021/04/24 00:10:35;;;;;;;12.65;5.88;;;;;;;3.99;100.00;97044.94;4997610;28;20078;-63
2021/04/24 00:13:04;;;;;;;11.43;6.65;;;;;;;4.03;100.00;97043.88;5000199;28;20068;-63
2021/04/24 00:15:34;;;;;;;9.38;6.00;;;;;;;3.98;100.00;97041.50;5010128;28;20074;-68
2021/04/24 00:18:03;;;;;;;11.45;6.45;;;;;;;4.00;100.00;97033.59;5000680;28;20065;-64
2021/04/24 00:20:31;;;;;;;11.60;6.32;;;;;;;3.97;100.00;97029.41;5013000;28;20065;-63
2021/04/24 00:22:59;;;;;;;8.90;6.60;;;;;;;3.91;100.00;97024.53;5004847;28;20105;-64
2021/04/24 00:25:27;;;;;;;12.52;6.90;;;;;;;3.94;100.00;97033.94;5009382;28;20062;-65
2021/04/24 00:27:54;;;;;;;9.75;6.30;;;;;;;4.12;100.00;97030.25;4990331;28;20085;-64
2021/04/24 00:30:23;;;;;;;11.20;6.50;;;;;;;4.15;100.00;97024.00;4988098;28;20307;-65
2021/04/24 00:32:52;;;;;;;13.82;6.07;;;;;;;4.00;100.00;97023.16;4990006;28;20458;-62
2021/04/24 00:35:21;;;;;;;10.07;6.10;;;;;;;3.85;100.00;97026.66;4982719;28;20062;-64
2021/04/24 00:37:50;;;;;;;10.27;6.15;;;;;;;3.70;100.00;97024.00;4988184;28;20059;-67
2021/04/24 00:40:19;;;;;;;13.90;6.53;;;;;;;3.77;100.00;97016.66;5007270;28;20046;-62
2021/04/24 00:42:48;;;;;;;11.23;7.07;;;;;;;3.69;100.00;97014.50;5003933;28;20092;-64
2021/04/24 00:45:18;;;;;;;9.70;6.63;;;;;;;3.49;100.00;97015.66;4998071;28;20460;-63
2021/04/24 00:47:46;;;;;;;11.85;7.43;;;;;;;3.55;100.00;97010.09;4998985;28;20469;-63
2021/04/24 00:50:18;;;;;;;12.77;7.43;;;;;;;3.55;100.00;97001.44;5004210;28;20073;-63
2021/04/24 00:52:46;;;;;;;15.23;7.57;;;;;;;3.39;100.00;97004.06;4993056;28;20089;-66
2021/04/24 00:55:14;;;;;;;12.60;7.90;;;;;;;3.51;100.00;96999.91;5002336;28;20081;-58
2021/04/24 00:57:42;;;;;;;17.48;8.63;;;;;;;3.46;100.00;97004.56;5007571;28;20082;-67
2021/04/24 01:00:12;;;;;;;16.70;8.43;;;;;;;3.38;100.00;96998.94;4995077;28;20073;-67
2021/04/24 01:02:40;;;;;;;17.30;9.05;;;;;;;3.07;100.00;96990.25;4990810;28;20065;-66
2021/04/24 01:05:09;;;;;;;15.48;9.80;;;;;;;3.11;100.00;96988.31;4997391;28;20069;-62
2021/04/24 01:07:37;;;;;;;14.80;8.68;;;;;;;3.20;100.00;96985.16;5009021;28;20061;-62
2021/04/24 01:10:06;;;;;;;12.60;7.13;;;;;;;3.13;100.00;96984.66;5007317;28;20084;-63
2021/04/24 01:12:33;;;;;;;18.77;8.27;;;;;;;3.28;100.00;96982.97;4999314;28;20527;-64
2021/04/24 01:15:01;;;;;;;11.88;7.78;;;;;;;3.29;100.00;96977.66;4988621;28;20072;-63
2021/04/24 01:17:28;;;;;;;13.93;8.43;;;;;;;3.28;100.00;96975.16;5003384;28;20115;-65
2021/04/24 01:19:56;;;;;;;15.15;8.40;;;;;;;3.26;100.00;96982.22;4993380;28;20069;-57
2021/04/24 01:22:24;;;;;;;20.02;8.88;;;;;;;3.32;100.00;96976.66;5004674;28;20069;-63
2021/04/24 01:24:52;;;;;;;17.80;9.43;;;;;;;3.28;100.00;96970.78;4999486;28;20081;-63
2021/04/24 01:27:20;;;;;;;14.63;8.88;;;;;;;3.31;100.00;96975.81;5002716;28;20065;-58
2021/04/24 01:29:48;;;;;;;18.38;9.27;;;;;;;3.14;100.00;96973.34;4994337;28;20062;-63
2021/04/24 01:32:15;;;;;;;17.70;10.23;;;;;;;2.86;100.00;96968.81;5003591;28;20069;-65
2021/04/24 01:34:43;;;;;;;21.15;9.65;;;;;;;2.98;100.00;96975.94;5001047;28;20129;-64
2021/04/24 01:37:10;;;;;;;17.23;10.18;;;;;;;3.08;100.00;96973.66;4997761;28;20532;-63
2021/04/24 01:39:39;;;;;;;17.05;9.52;;;;;;;3.02;100.00;96976.63;5000742;28;20078;-59
2021/04/24 01:42:07;;;;;;;19.65;9.73;;;;;;;3.28;100.00;96969.94;4999677;28;20058;-61
2021/04/24 01:44:34;;;;;;;17.85;9.20;;;;;;;2.95;100.00;96963.09;4994968;28;20066;-63
2021/04/24 01:47:02;;;;;;;16.83;9.75;;;;;;;2.92;100.00;96971.06;5000416;28;20076;-66
2021/04/24 01:49:30;;;;;;;20.95;9.75;;;;;;;3.13;100.00;96968.19;5006203;28;20105;-59
2021/04/24 01:51:57;;;;;;;14.80;9.30;;;;;;;2.94;100.00;96960.59;4996168;28;20078;-61
2021/04/24 01:54:25;;;;;;;20.10;10.15;;;;;;;2.99;100.00;96961.97;4999287;28;20137;-62
2021/04/24 01:56:55;;;;;;;14.23;8.48;;;;;;;2.78;100.00;96961.41;4988958;28;20066;-66
2021/04/24 01:59:25;;;;;;;16.33;8.83;;;;;;;3.08;100.00;96958.03;5005631;28;20621;-64
2021/04/24 02:01:54;;;;;;;15.38;9.40;;;;;;;2.85;100.00;96965.34;4998267;28;20488;-63
2021/04/24 02:04:23;;;;;;;20.65;10.02;;;;;;;2.62;100.00;96958.00;4997605;28;20069;-60
2021/04/24 02:06:51;;;;;;;15.85;9.18;;;;;;;2.85;100.00;96956.72;5008110;28;20477;-61
2021/04/24 02:09:19;;;;;;;14.57;8.98;;;;;;;2.87;100.00;96954.03;5010329;28;20066;-57
2021/04/24 02:12:07;;;;;;;15.75;9.27;;;;;;;2.80;100.00;96951.75;5016614;28;20081;-66
2021/04/24 02:14:40;;;;;;;16.73;9.30;;;;;;;2.80;100.00;96956.13;5009299;28;20448;-62
2021/04/24 02:17:10;;;;;;;20.75;8.70;;;;;;;2.84;100.00;96955.03;5007576;28;20070;-67
2021/04/24 02:19:39;;;;;;;16.83;9.20;;;;;;;2.86;100.00;96953.19;5008516;28;20490;-61
2021/04/24 02:22:07;;;;;;;13.75;9.13;;;;;;;2.63;100.00;96957.06;4998529;28;20089;-63
2021/04/24 02:24:40;;;;;;;14.45;8.80;;;;;;;2.62;100.00;96950.19;5008596;28;20539;-65
2021/04/24 02:27:09;;;;;;;17.63;8.95;;;;;;;2.40;100.00;96955.69;4979733;28;20065;-67
2021/04/24 02:29:37;;;;;;;23.83;10.00;;;;;;;2.72;100.00;96945.28;4980521;28;20065;-63
2021/04/24 02:32:06;;;;;;;14.75;9.80;;;;;;;2.64;100.00;96955.28;4985112;28;20473;-65
2021/04/24 02:34:34;;;;;;;15.63;9.15;;;;;;;2.59;100.00;96948.56;5000901;28;20452;-63
2021/04/24 02:37:02;;;;;;;15.07;9.65;;;;;;;2.70;100.00;96942.78;4999605;28;20093;-69
2021/04/24 02:39:31;;;;;;;17.40;9.52;;;;;;;2.77;100.00;96940.69;5009044;28;20115;-62
2021/04/24 02:42:01;;;;;;;17.88;9.30;;;;;;;2.45;100.00;96940.69;4993839;28;20058;-62
2021/04/24 02:44:30;;;;;;;15.55;10.38;;;;;;;2.38;100.00;96945.38;5007714;28;20065;-62
2021/04/24 02:46:57;;;;;;;15.13;9.23;;;;;;;2.42;100.00;96946.06;5007354;28;20073;-62
2021/04/24 02:49:25;;;;;;;15.40;8.80;;;;;;;2.58;100.00;96939.09;5007874;28;20061;-62
2021/04/24 02:51:53;;;;;;;15.02;8.73;;;;;;;2.23;100.00;96940.13;5009774;28;20070;-65
2021/04/24 02:54:21;;;;;;;14.88;9.07;;;;;;;2.29;100.00;96937.22;4988686;28;20073;-62
2021/04/24 02:56:49;;;;;;;21.60;9.88;;;;;;;2.40;100.00;96927.06;4983840;28;20077;-62
2021/04/24 02:59:16;;;;;;;11.48;8.68;;;;;;;2.48;100.00;96943.13;4994246;28;20075;-63
2021/04/24 03:01:45;;;;;;;14.93;9.95;;;;;;;2.27;100.00;96945.13;4998330;28;20084;-65
2021/04/24 03:04:13;;;;;;;17.33;9.32;;;;;;;2.34;100.00;96938.66;5006755;28;20563;-64
2021/04/24 03:06:41;;;;;;;18.05;10.32;;;;;;;2.14;100.00;96929.31;5010256;28;20151;-63
2021/04/24 03:09:09;;;;;;;12.63;8.90;;;;;;;2.12;100.00;96936.34;4997968;28;20070;-62
2021/04/24 03:11:37;;;;;;;17.50;9.27;;;;;;;2.02;100.00;96935.16;5009002;28;20062;-62
2021/04/24 03:14:04;;;;;;;16.00;9.88;;;;;;;2.29;100.00;96934.63;5010380;28;20070;-63
2021/04/24 03:16:32;;;;;;;16.40;9.77;;;;;;;2.22;100.00;96923.69;4999319;28;20461;-63
2021/04/24 03:19:01;;;;;;;16.98;9.30;;;;;;;2.23;100.00;96927.13;5006481;28;20153;-62
2021/04/24 03:21:30;;;;;;;17.45;9.93;;;;;;;2.36;100.00;96926.38;5009243;28;20097;-64
2021/04/24 03:23:57;;;;;;;16.98;9.23;;;;;;;2.09;100.00;96930.47;5009553;28;20081;-63
2021/04/24 03:26:25;;;;;;;15.00;8.52;;;;;;;2.24;100.00;96928.81;5008456;28;20085;-61
2021/04/24 03:28:52;;;;;;;13.98;8.82;;;;;;;2.33;100.00;96933.53;5008532;28;20524;-63
2021/04/24 03:31:20;;;;;;;18.42;8.77;;;;;;;2.07;100.00;96933.16;5004109;28;20455;-67
2021/04/24 03:33:48;;;;;;;17.25;8.52;;;;;;;1.57;100.00;96928.78;5004951;28;20054;-62
2021/04/24 03:36:17;;;;;;;13.77;8.77;;;;;;;1.78;100.00;96932.06;5014149;28;20057;-67
2021/04/24 03:38:44;;;;;;;13.63;8.80;;;;;;;1.32;100.00;96941.34;5016434;28;20113;-66
2021/04/24 03:41:13;;;;;;;12.02;7.93;;;;;;;1.62;100.00;96933.78;5011993;28;20526;-65
2021/04/24 03:43:41;;;;;;;16.33;8.82;;;;;;;1.76;100.00;96925.28;5009866;28;20580;-63
2021/04/24 03:46:09;;;;;;;13.90;8.23;;;;;;;1.99;100.00;96934.47;4999798;28;20080;-62
2021/04/24 03:48:36;;;;;;;15.45;8.90;;;;;;;1.85;100.00;96929.97;5012252;28;20078;-62
2021/04/24 03:51:04;;;;;;;15.20;8.90;;;;;;;1.93;100.00;96935.66;5003472;28;20069;-63
2021/04/24 03:53:32;;;;;;;16.88;9.18;;;;;;;2.06;100.00;96931.44;5006378;28;20064;-63
2021/04/24 03:56:00;;;;;;;16.17;9.00;;;;;;;2.15;100.00;96930.13;4998077;28;20062;-62
2021/04/24 03:58:27;;;;;;;19.75;9.35;;;;;;;2.12;100.00;96936.34;5007102;28;20069;-64
2021/04/24 04:00:56;;;;;;;15.70;9.18;;;;;;;1.90;100.00;96938.41;4994405;28;20085;-63
2021/04/24 04:03:24;;;;;;;13.07;8.75;;;;;;;1.96;100.00;96927.69;5008918;28;20367;-60
2021/04/24 04:05:52;;;;;;;15.77;9.55;;;;;;;1.93;100.00;96935.66;5011013;28;20575;-65
2021/04/24 04:08:19;;;;;;;18.02;8.57;;;;;;;2.13;100.00;96942.38;5002164;28;20093;-63
2021/04/24 04:10:52;;;;;;;16.67;9.68;;;;;;;2.16;100.00;96941.38;5001245;28;20062;-63
2021/04/24 04:13:20;;;;;;;17.52;10.05;;;;;;;2.06;100.00;96935.81;5006556;28;20069;-62
2021/04/24 04:15:47;;;;;;;18.40;8.55;;;;;;;2.33;100.00;96938.72;5000241;28;20092;-67
2021/04/24 04:18:16;;;;;;;15.15;9.20;;;;;;;2.24;100.00;96939.22;4999123;28;20074;-61
2021/04/24 04:20:45;;;;;;;17.70;9.15;;;;;;;2.37;100.00;96930.69;5003127;28;20062;-62
2021/04/24 04:23:13;;;;;;;17.92;8.48;;;;;;;2.23;100.00;96940.13;5000579;28;20555;-67
2021/04/24 04:25:42;;;;;;;13.98;8.68;;;;;;;2.45;100.00;96939.84;4996243;28;20567;-62
2021/04/24 04:28:10;;;;;;;16.10;8.35;;;;;;;1.88;100.00;96940.22;5004961;28;20468;-65
2021/04/24 04:30:38;;;;;;;14.82;8.27;;;;;;;2.08;100.00;96940.03;5012067;28;20082;-63
2021/04/24 04:33:07;;;;;;;15.05;8.55;;;;;;;2.09;100.00;96949.50;5005429;28;20066;-62
2021/04/24 04:35:35;;;;;;;12.80;8.65;;;;;;;2.56;100.00;96940.94;5005560;28;20092;-64
2021/04/24 04:38:03;;;;;;;11.05;7.85;;;;;;;2.74;100.00;96946.88;5003297;28;20073;-61
2021/04/24 04:40:31;;;;;;;12.57;7.88;;;;;;;2.76;100.00;96944.22;5005473;28;20482;-62
2021/04/24 04:42:59;;;;;;;16.25;8.20;;;;;;;2.73;100.00;96952.19;5000778;28;20088;-63
2021/04/24 04:45:28;;;;;;;14.98;8.75;;;;;;;2.79;100.00;96947.50;5001918;28;20073;-63
2021/04/24 04:47:56;;;;;;;10.30;8.18;;;;;;;2.86;100.00;96953.19;5005089;28;20077;-62
2021/04/24 04:50:26;;;;;;;14.00;8.77;;;;;;;3.02;100.00;96953.16;5006865;28;20080;-59
2021/04/24 04:52:54;;;;;;;;;;;;;;;3.24;100.00;96955.41;5004604;28;20080;-65
2021/04/24 04:55:21;;;;;;;15.10;8.85;;;;;;;5.42;100.00;96942.91;5008375;28;20371;-62
2021/04/24 04:57:50;;;;;;;15.57;8.85;;;;;;;7.45;97.56;96933.06;5007017;28;20465;-63
2021/04/24 05:00:19;;;;;;;13.45;8.43;;;;;;;8.71;77.85;96931.38;5007920;28;20076;-60
2021/04/24 05:02:48;;;;;;;17.05;8.18;;;;;;;8.97;72.81;96929.28;5001662;28;20062;-66
2021/04/24 05:05:17;;;;;;;15.20;7.80;;;;;;;9.32;72.75;96934.31;5003814;28;20061;-61
2021/04/24 05:07:45;;;;;;;13.25;7.60;;;;;;;10.83;60.44;96939.13;5000355;28;20479;-63
2021/04/24 05:10:23;;;;;;;18.25;7.20;;;;;;;10.86;57.71;96933.59;5006377;28;20057;-61
2021/04/24 05:12:52;;;;;;;14.40;7.45;;;;;;;9.04;65.76;96943.63;5009479;28;20468;-65
2021/04/24 05:15:20;;;;;;;11.77;7.40;;;;;;;9.78;62.92;96937.63;4996607;28;20072;-63
2021/04/24 05:17:49;;;;;;;13.60;8.65;;;;;;;9.27;64.35;96949.66;5001599;28;20061;-66
2021/04/24 05:20:18;;;;;;;11.45;7.50;;;;;;;10.54;59.85;96946.13;5000921;28;20512;-61
2021/04/24 05:22:46;;;;;;;18.75;11.60;;;;;;;10.41;61.35;96951.59;5001398;28;20068;-63
2021/04/24 05:25:15;;;;;;;14.38;8.27;;;;;;;10.83;58.01;96949.69;5004485;28;20085;-60
2021/04/24 05:27:44;;;;;;;12.80;6.93;;;;;;;10.28;59.25;96951.81;5012220;28;20696;-63
2021/04/24 05:30:13;;;;;;;14.43;7.65;;;;;;;9.94;63.46;96959.91;4995919;28;20073;-64
2021/04/24 05:32:41;;;;;;;12.25;7.38;;;;;;;9.34;67.56;96971.06;5002108;28;20564;-66
2021/04/24 05:35:11;;;;;;;11.27;6.80;;;;;;;8.86;73.31;96969.59;5003816;28;20076;-64
2021/04/24 05:37:38;;;;;;;13.20;7.07;;;;;;;8.60;76.48;96973.44;5006591;28;20565;-63
2021/04/24 05:40:07;;;;;;;16.13;7.15;;;;;;;8.38;82.48;96979.53;5009412;28;20073;-58
2021/04/24 05:42:35;;;;;;;11.23;7.10;;;;;;;8.05;87.53;96975.84;5019009;28;20073;-66
2021/04/24 05:45:10;;;;;;;15.38;7.38;;;;;;;7.77;93.65;96985.78;5001521;28;20463;-62
2021/04/24 05:47:38;;;;;;;17.15;8.02;;;;;;;7.77;95.90;96975.28;5012688;28;20494;-68
2021/04/24 05:50:07;;;;;;;14.00;7.95;;;;;;;7.65;97.68;96984.09;5007982;28;20103;-64
2021/04/24 05:52:36;;;;;;;12.70;8.15;;;;;;;7.48;100.00;96995.00;5010017;28;20470;-63
2021/04/24 05:55:05;;;;;;;13.27;8.25;;;;;;;7.80;98.75;96979.50;5006983;28;20154;-62
2021/04/24 05:57:33;;;;;;;14.52;8.70;;;;;;;7.29;100.00;96998.09;5018639;28;20089;-60
2021/04/24 06:00:00;;;;;;;11.88;8.18;;;;;;;7.78;99.30;96992.75;5003117;28;20069;-64
2021/04/24 06:02:28;;;;;;;14.85;9.05;;;;;;;8.08;95.51;96989.56;5013683;28;20559;-61
2021/04/24 06:04:56;;;;;;;15.07;8.93;;;;;;;7.88;96.81;96984.16;5013814;28;20073;-62
2021/04/24 06:07:23;;;;;;;18.10;8.52;;;;;;;8.20;94.81;96985.19;5004577;28;20539;-61
2021/04/24 06:09:52;;;;;;;13.25;8.32;;;;;;;8.37;92.21;96983.91;5010116;28;20527;-62
2021/04/24 06:12:19;;;;;;;14.13;8.68;;;;;;;8.59;90.72;96988.38;5012119;28;20057;-65
2021/04/24 06:14:51;;;;;;;11.68;7.97;;;;;;;8.70;85.21;96985.72;5012679;28;20539;-62
2021/04/24 06:17:19;;;;;;;12.75;7.75;;;;;;;8.74;85.15;96981.06;5008915;28;20081;-64
2021/04/24 06:19:47;;;;;;;13.55;8.10;;;;;;;8.46;87.17;96988.47;5016723;28;20281;-61
2021/04/24 06:22:14;;;;;;;13.35;8.13;;;;;;;8.82;87.88;96980.50;5001554;28;20092;-64
2021/04/24 06:24:42;;;;;;;18.17;8.32;;;;;;;8.93;87.19;96981.31;4998410;28;20089;-62
2021/04/24 06:27:10;;;;;;;14.70;8.45;;;;;;;9.20;86.50;96983.53;5016342;28;20065;-62
2021/04/24 06:29:38;;;;;;;12.60;7.70;;;;;;;9.44;82.93;96979.88;5014538;28;20095;-64
2021/04/24 06:32:06;;;;;;;13.63;8.05;;;;;;;9.02;84.80;96980.56;5001555;28;20062;-63
2021/04/24 06:34:33;;;;;;;15.13;8.02;;;;;;;9.19;82.60;96973.13;5013893;28;20037;-61
2021/04/24 06:37:01;;;;;;;11.63;7.45;;;;;;;9.39;80.17;96979.41;4997559;28;20086;-61
2021/04/24 06:39:29;;;;;;;12.60;7.68;;;;;;;9.82;77.23;96974.09;5016074;28;20489;-62
2021/04/24 06:41:56;;;;;;;13.20;7.20;;;;;;;9.35;76.07;96972.72;5005963;28;20077;-60
2021/04/24 06:44:25;;;;;;;12.35;7.40;;;;;;;9.19;80.77;96971.34;5021106;28;20527;-60
2021/04/24 06:46:52;;;;;;;14.60;7.53;;;;;;;9.50;81.75;96974.13;5010639;28;20100;-61
2021/04/24 06:49:20;;;;;;;13.70;7.80;;;;;;;10.12;78.52;96977.78;4991187;28;20538;-59
2021/04/24 06:51:47;;;;;;;14.32;7.78;;;;;;;10.15;82.32;96972.22;5009902;28;20538;-58
2021/04/24 06:54:15;;;;;;;15.55;7.68;;;;;;;10.17;76.59;96968.50;5002677;28;20065;-65
2021/04/24 06:56:44;;;;;;;12.65;7.43;;;;;;;10.29;74.25;96971.09;4997868;28;20302;-59
2021/04/24 06:59:11;;;;;;;18.25;7.88;;;;;;;10.76;72.47;96968.81;4994842;28;20066;-60
2021/04/24 07:01:40;;;;;;;13.05;8.48;;;;;;;10.83;71.19;96960.22;4993146;28;20058;-60
2021/04/24 07:04:08;;;;;;;13.05;8.23;;;;;;;11.03;64.13;96965.59;4993590;28;20508;-60
2021/04/24 07:06:36;;;;;;;13.65;8.20;;;;;;;10.57;66.35;96967.78;5011944;28;20515;-59
2021/04/24 07:09:04;;;;;;;13.65;7.88;;;;;;;10.47;67.47;96964.28;5002149;28;20058;-60
2021/04/24 07:11:34;;;;;;;12.98;8.02;;;;;;;10.99;63.97;96961.56;4991038;28;20070;-60
2021/04/24 07:14:01;;;;;;;18.13;8.25;;;;;;;11.40;63.99;96958.72;4994038;28;20471;-59
2021/04/24 07:16:29;;;;;;;17.20;8.38;;;;;;;11.54;63.90;96964.56;5004601;28;20073;-59
2021/04/24 07:18:57;;;;;;;12.48;8.45;;;;;;;11.76;63.76;96953.69;4988055;28;20086;-62
2021/04/24 07:21:25;;;;;;;17.23;8.30;;;;;;;11.36;64.63;96956.50;4981473;28;20075;-58
2021/04/24 07:23:53;;;;;;;12.95;8.68;;;;;;;11.68;64.94;96953.56;4984785;28;20058;-63
2021/04/24 07:26:21;;;;;;;14.88;8.57;;;;;;;11.53;64.79;96962.91;4995167;28;20081;-60
2021/04/24 07:28:48;;;;;;;11.63;8.18;;;;;;;12.20;62.05;96950.63;5000771;28;20110;-60
2021/04/24 07:31:16;;;;;;;15.73;8.88;;;;;;;12.18;61.86;96949.91;4987841;28;20085;-60
2021/04/24 07:33:43;;;;;;;13.52;8.00;;;;;;;12.20;60.24;96958.56;4990996;28;20065;-67
2021/04/24 07:36:13;;;;;;;16.38;8.68;;;;;;;12.74;55.92;96949.91;4987232;28;20066;-67
2021/04/24 07:38:41;;;;;;;16.77;8.50;;;;;;;12.54;54.86;96949.13;4997314;28;20546;-62
2021/04/24 07:41:09;;;;;;;17.58;8.52;;;;;;;12.98;54.09;96935.31;5012457;28;20050;-55
2021/04/24 07:43:37;;;;;;;15.18;7.85;;;;;;;13.12;51.74;96939.25;5007054;28;20080;-60
2021/04/24 07:46:04;;;;;;;14.00;8.25;;;;;;;13.28;51.92;96942.97;5003347;28;20084;-61
2021/04/24 07:48:32;;;;;;;14.82;8.20;;;;;;;13.36;51.98;96934.25;5011756;28;20085;-65
2021/04/24 07:50:59;;;;;;;16.42;8.68;;;;;;;13.46;51.41;96934.19;5007274;28;20061;-62
2021/04/24 07:53:28;;;;;;;13.95;8.55;;;;;;;13.40;49.74;96940.09;5000534;28;20077;-61
2021/04/24 07:55:55;;;;;;;12.32;8.18;;;;;;;13.30;47.94;96938.31;4983266;28;20062;-66
2021/04/24 07:58:23;;;;;;;14.18;7.82;;;;;;;13.10;50.79;96933.28;4982930;28;20434;-63
2021/04/24 08:00:51;;;;;;;14.80;8.00;;;;;;;13.58;49.04;96934.78;5022299;23;20089;-53
2021/04/24 08:03:18;;;;;;;18.58;8.60;;;;;;;13.34;49.04;96935.38;4997585;28;20460;-47
2021/04/24 08:05:45;;;;;;;15.13;7.88;;;;;;;13.76;48.36;96935.59;5016557;28;20071;-49
2021/04/24 08:08:13;;;;;;;15.73;8.32;;;;;;;13.87;47.45;96938.03;5027482;28;20068;-54
2021/04/24 08:10:42;;;;;;;14.15;8.05;;;;;;;14.53;46.33;96942.00;5009989;28;20066;-50
2021/04/24 08:13:09;;;;;;;13.20;8.00;;;;;;;14.35;46.29;96936.72;5007457;28;20594;-49
2021/04/24 08:15:37;;;;;;;18.08;8.40;;;;;;;13.75;48.83;96928.63;5026199;28;20213;-47
2021/04/24 08:18:05;;;;;;;15.20;7.90;;;;;;;14.27;47.02;96936.66;5009660;28;20074;-50
2021/04/24 08:20:33;;;;;;;15.73;9.07;;;;;;;14.63;46.33;96933.94;5016565;28;20077;-50
2021/04/24 08:23:01;;;;;;;14.35;8.27;;;;;;;14.43;46.67;96933.28;5026202;28;20069;-54
2021/04/24 08:25:28;;;;;;;11.93;7.43;;;;;;;14.94;46.22;96929.75;5026072;28;20077;-53
2021/04/24 08:27:57;;;;;;;15.48;7.68;;;;;;;14.96;45.77;96934.88;5027580;28;20084;-50
2021/04/24 08:30:25;;;;;;;13.50;7.57;;;;;;;14.85;46.91;96932.53;5005756;28;21491;-49
2021/04/24 08:32:52;;;;;;;13.23;7.72;;;;;;;15.33;44.81;96931.03;5013570;28;20073;-47
2021/04/24 08:35:20;;;;;;;14.98;7.63;;;;;;;15.82;43.33;96925.78;5014698;28;20045;-49
2021/04/24 08:37:47;;;;;;;18.05;8.52;;;;;;;15.63;42.33;96919.78;5020143;28;20569;-48
2021/04/24 08:40:17;;;;;;;10.13;7.30;;;;;;;15.62;39.98;96922.56;5019255;28;20085;-49
2021/04/24 08:42:47;;;;;;;12.18;7.45;;;;;;;16.17;38.01;96916.63;5025414;28;20076;-49
2021/04/24 08:45:17;;;;;;;14.27;7.68;;;;;;;15.80;38.89;96925.13;5005455;28;20053;-53
2021/04/24 08:47:46;;;;;;;11.52;7.22;;;;;;;15.69;40.48;96917.47;5016216;28;20065;-53
2021/04/24 08:50:16;;;;;;;13.27;7.47;;;;;;;16.13;39.93;96915.28;5006411;28;20069;-49
2021/04/24 08:52:44;;;;;;;11.95;7.95;;;;;;;15.31;40.50;96930.34;5013357;28;20508;-58
2021/04/24 08:55:16;;;;;;;14.20;7.35;;;;;;;15.25;39.90;96933.66;5022329;28;20049;-54
2021/04/24 08:57:44;;;;;;;13.70;7.45;;;;;;;15.29;40.20;96929.69;5024035;28;20095;-54
2021/04/24 09:00:13;;;;;;;11.85;7.55;;;;;;;15.42;40.33;96927.41;5019371;28;20605;-54
2021/04/24 09:02:44;;;;;;;13.30;7.10;;;;;;;15.66;38.87;96913.34;4991199;28;20053;-51
2021/04/24 09:05:14;;;;;;;13.75;6.95;;;;;;;15.70;38.73;96909.34;5006283;28;20077;-52
2021/04/24 09:07:41;;;;;;;;;;;;;;;15.93;39.89;96908.66;5005839;28;20115;-53
2021/04/24 09:10:15;;;;;;;13.20;7.38;;;;;;;15.59;39.37;96913.13;5004657;28;19952;-51
2021/04/24 09:12:45;;;;;;;12.07;7.15;;;;;;;15.41;38.13;96907.94;5021388;28;20073;-53
2021/04/24 09:15:17;;;;;;;15.30;7.50;;;;;;;15.52;38.29;96913.94;5026062;28;20084;-52
2021/04/24 09:17:58;;;;;;;17.98;7.65;;;;;;;16.79;37.42;96889.34;5031041;28;20068;-48
2021/04/24 09:20:28;;;;;;;12.68;7.45;;;;;;;16.11;37.16;96896.84;5025477;28;20073;-49
2021/04/24 09:23:02;;;;;;;13.52;7.10;;;;;;;16.42;34.57;96896.13;5026980;28;20061;-53
2021/04/24 09:25:35;;;;;;;12.27;7.10;;;;;;;16.78;35.09;96901.84;5022413;28;20061;-52
2021/04/24 09:28:04;;;;;;;13.98;7.32;;;;;;;16.65;35.58;96900.72;5020431;28;20081;-49
2021/04/24 09:30:33;;;;;;;12.77;8.10;;;;;;;17.17;33.61;96894.84;5021970;28;20080;-52
2021/04/24 09:33:04;;;;;;;13.38;6.65;;;;;;;17.41;34.05;96881.38;5021586;28;20100;-51
2021/04/24 09:35:53;;;;;;;11.10;6.65;;;;;;;16.94;31.51;96878.81;5024328;28;20064;-51
2021/04/24 09:38:23;;;;;;;13.93;6.95;;;;;;;17.10;31.94;96892.03;5018804;28;20073;-47
2021/04/24 09:41:08;;;;;;;13.20;7.72;;;;;;;16.53;35.49;96887.78;5023462;28;20111;-51
2021/04/24 09:44:02;;;;;;;13.07;7.88;;;;;;;17.07;33.96;96887.09;5020709;28;20065;-49
2021/04/24 09:46:33;;;;;;;13.45;7.60;;;;;;;16.82;32.80;96884.53;5024175;28;20057;-52
2021/04/24 09:49:10;;;;;;;11.98;7.25;;;;;;;16.85;32.68;96881.50;5015737;28;20096;-55
2021/04/24 09:51:42;;;;;;;9.98;7.03;;;;;;;17.14;32.30;96880.06;5027665;28;20158;-53
2021/04/24 09:54:10;;;;;;;12.02;6.80;;;;;;;17.35;31.76;96874.09;5021494;28;20073;-52
2021/04/24 09:56:38;;;;;;;12.35;6.50;;;;;;;16.86;31.87;96877.00;5024218;28;20084;-53
2021/04/24 09:59:07;;;;;;;14.52;7.50;;;;;;;16.94;32.42;96869.00;5013048;28;20475;-53
2021/04/24 10:01:38;;;;;;;10.00;6.90;;;;;;;17.01;31.86;96869.97;5001515;28;20068;-49
2021/04/24 10:04:11;;;;;;;12.43;7.55;;;;;;;17.33;31.73;96860.09;5006324;28;20069;-48
2021/04/24 10:06:40;;;;;;;15.95;7.50;;;;;;;17.42;30.69;96861.72;5009948;28;20073;-50
2021/04/24 10:09:30;;;;;;;12.75;7.15;;;;;;;17.60;30.63;96852.56;5005622;28;20452;-49
2021/04/24 10:12:08;;;;;;;11.85;6.78;;;;;;;17.46;30.97;96843.53;5020306;28;20097;-51
2021/04/24 10:14:38;;;;;;;11.50;7.25;;;;;;;17.30;31.63;96847.94;5023613;28;20073;-52
2021/04/24 10:17:07;;;;;;;11.10;7.40;;;;;;;17.52;32.71;96840.16;5021995;28;20571;-48
2021/04/24 10:19:36;;;;;;;15.40;8.10;;;;;;;18.01;31.92;96843.22;5016768;28;20073;-52
2021/04/24 10:22:05;;;;;;;13.80;7.75;;;;;;;17.91;31.52;96837.31;5024180;28;20085;-54
2021/04/24 10:24:33;;;;;;;14.73;8.57;;;;;;;17.95;31.23;96843.94;5021460;28;20456;-53
2021/04/24 10:27:00;;;;;;;14.00;8.45;;;;;;;17.78;31.85;96834.44;5002144;28;20066;-54
2021/04/24 10:29:28;;;;;;;13.70;7.65;;;;;;;17.63;31.94;96830.88;5022323;28;20081;-55
2021/04/24 10:31:56;;;;;;;12.75;8.20;;;;;;;17.43;31.08;96841.19;5025499;28;20083;-50
2021/04/24 10:34:24;;;;;;;11.85;7.03;;;;;;;17.66;29.43;96830.53;5026845;28;20061;-51
2021/04/24 10:36:53;;;;;;;12.05;7.80;;;;;;;17.22;30.56;96832.00;5029978;28;20088;-49
2021/04/24 10:39:24;;;;;;;11.32;7.40;;;;;;;17.41;29.80;96829.88;5007397;28;20065;-51
2021/04/24 10:42:03;;;;;;;11.13;7.22;;;;;;;17.97;30.01;96831.25;5015046;28;20087;-53
2021/04/24 10:44:51;;;;;;;13.65;7.55;;;;;;;17.94;29.79;96822.78;5021475;28;20481;-54
2021/04/24 10:47:45;;;;;;;12.60;7.70;;;;;;;17.13;30.00;96830.41;5025155;28;20077;-50
2021/04/24 10:50:16;;;;;;;12.38;7.68;;;;;;;17.73;29.09;96820.78;5024146;28;20069;-52
2021/04/24 10:52:44;;;;;;;;;;;;;;;18.03;29.39;96817.19;5035264;28;20069;-54
2021/04/24 10:55:23;;;;;;;9.55;6.68;;;;;;;19.11;28.18;96818.41;5024804;28;19960;-53
2021/04/24 10:57:53;;;;;;;10.20;7.30;;;;;;;18.42;28.65;96820.63;5023969;28;20077;-49
2021/04/24 11:00:23;;;;;;;10.95;7.10;;;;;;;18.60;29.63;96812.22;5025725;28;20088;-56
2021/04/24 11:02:52;;;;;;;11.75;7.85;;;;;;;18.39;27.96;96821.81;5024326;28;20065;-53
2021/04/24 11:05:27;;;;;;;15.98;7.85;;;;;;;18.88;27.98;96812.38;5024310;28;20064;-55
2021/04/24 11:08:36;;;;;;;12.32;8.15;;;;;;;19.08;28.93;96807.25;5026685;28;20076;-50
2021/04/24 11:11:07;;;;;;;10.68;6.97;;;;;;;18.58;28.46;96815.09;5026403;28;20076;-50
2021/04/24 11:13:37;;;;;;;12.43;7.90;;;;;;;18.79;29.37;96813.50;5020904;28;20074;-53
2021/04/24 11:16:08;;;;;;;13.95;7.80;;;;;;;18.38;29.44;96812.16;5010282;28;20085;-54
2021/04/24 11:18:37;;;;;;;13.98;7.60;;;;;;;18.89;28.97;96806.00;5029270;28;20084;-53
2021/04/24 11:21:06;;;;;;;11.07;7.20;;;;;;;18.54;28.30;96808.44;5007428;28;20130;-55
2021/04/24 11:23:51;;;;;;;12.25;7.85;;;;;;;18.34;27.60;96807.34;5008552;28;20069;-48
2021/04/24 11:26:46;;;;;;;12.13;7.82;;;;;;;17.93;29.03;96799.81;5024715;28;20075;-50
2021/04/24 11:29:15;;;;;;;11.60;7.28;;;;;;;18.56;29.23;96797.56;5012579;28;20073;-49
2021/04/24 11:31:49;;;;;;;13.02;6.63;;;;;;;18.87;27.07;96789.34;5006449;28;20069;-54
2021/04/24 11:34:31;;;;;;;9.50;6.78;;;;;;;18.71;27.56;96790.34;5009038;28;20081;-52
2021/04/24 11:37:33;;;;;;;11.13;7.53;;;;;;;19.35;28.03;96785.09;5021166;28;20080;-56